Time;durP1;ratioP1;P1;durP2;ratioP2;P2;SDS_P1;SDS_P2;PMS_P1;PMS_P2;Temp;Humidity;BMP_temperature;BMP_pressure;BME280_temperature;BME280_humidity;BME280_pressure;Samples;Min_cycle;Max_cycle;Signal;HPM_P1;HPM_P2
2023/03/27 00:01:48;;;;;;;7.15;1.70;;;1.20;99.90;;;;;;5108328;27;20075;-68
2023/03/27 00:04:14;;;;;;;4.00;1.38;;;1.20;99.90;;;;;;5102901;27;20036;-68
2023/03/27 00:06:40;;;;;;;7.85;1.80;;;1.20;99.90;;;;;;5105319;27;20047;-68
2023/03/27 00:09:07;;;;;;;9.60;1.70;;;1.30;99.90;;;;;;5105994;27;20039;-68
2023/03/27 00:11:33;;;;;;;4.47;1.13;;;1.30;99.90;;;;;;5105054;27;20035;-68
2023/03/27 00:13:58;;;;;;;8.60;1.73;;;1.30;99.90;;;;;;5104979;27;20496;-68
2023/03/27 00:16:26;;;;;;;5.68;1.58;;;1.40;99.90;;;;;;5104830;27;20114;-68
2023/03/27 00:18:53;;;;;;;9.02;1.70;;;1.50;99.90;;;;;;5091745;27;20038;-68
2023/03/27 00:21:21;;;;;;;8.38;1.60;;;1.40;99.90;;;;;;5093083;27;20047;-68
2023/03/27 00:23:46;;;;;;;9.23;1.38;;;1.40;99.90;;;;;;5086489;27;20034;-68
2023/03/27 00:26:13;;;;;;;12.60;1.73;;;1.40;99.90;;;;;;5103368;27;20035;-67
2023/03/27 00:28:38;;;;;;;11.18;1.55;;;1.40;99.90;;;;;;5105188;27;20042;-68
2023/03/27 00:31:12;;;;;;;9.52;1.50;;;1.50;99.90;;;;;;5105244;27;20520;-68
2023/03/27 00:33:38;;;;;;;8.75;1.55;;;1.50;99.90;;;;;;5097507;27;20394;-68
2023/03/27 00:36:04;;;;;;;9.55;2.17;;;1.50;99.90;;;;;;5103794;27;20072;-69
2023/03/27 00:38:31;;;;;;;6.82;1.38;;;1.50;99.90;;;;;;5106303;27;20047;-68
2023/03/27 00:40:56;;;;;;;5.20;1.50;;;1.50;99.90;;;;;;5105048;27;20039;-69
2023/03/27 00:43:33;;;;;;;9.55;1.48;;;1.50;99.90;;;;;;5108117;27;20399;-68
2023/03/27 00:46:40;;;;;;;7.03;1.40;;;1.60;99.90;;;;;;5098214;27;20081;-68
2023/03/27 00:49:10;;;;;;;5.85;1.58;;;1.60;99.90;;;;;;5086416;27;20555;-67
2023/03/27 00:51:37;;;;;;;8.38;1.60;;;1.60;99.90;;;;;;5105684;27;20464;-68
2023/03/27 00:54:03;;;;;;;9.93;1.40;;;1.50;99.90;;;;;;5106840;27;20035;-67
2023/03/27 00:56:29;;;;;;;4.90;1.40;;;1.40;99.90;;;;;;5122397;27;20043;-68
2023/03/27 00:58:59;;;;;;;10.50;1.88;;;1.40;99.90;;;;;;5103331;27;20071;-67
2023/03/27 01:01:28;;;;;;;8.93;1.75;;;1.30;99.90;;;;;;5101949;27;20031;-67
2023/03/27 01:03:58;;;;;;;11.07;1.50;;;1.30;99.90;;;;;;5103239;27;20042;-68
2023/03/27 01:06:24;;;;;;;6.68;1.40;;;1.20;99.90;;;;;;5103379;27;20031;-67
2023/03/27 01:08:50;;;;;;;11.68;1.50;;;1.20;99.90;;;;;;5099199;27;20564;-67
2023/03/27 01:11:38;;;;;;;10.30;1.70;;;1.20;99.90;;;;;;5100433;27;20126;-67
2023/03/27 01:14:29;;;;;;;7.10;1.45;;;1.30;99.90;;;;;;5105532;27;20136;-68
2023/03/27 01:17:00;;;;;;;7.47;1.42;;;1.30;99.90;;;;;;5103110;27;20106;-68
2023/03/27 01:19:44;;;;;;;6.95;1.52;;;1.40;99.90;;;;;;5088707;27;20042;-68
2023/03/27 01:22:32;;;;;;;10.68;1.60;;;1.40;99.90;;;;;;5106718;27;20071;-68
2023/03/27 01:25:03;;;;;;;6.75;1.67;;;1.40;99.90;;;;;;5098049;27;20363;-68
2023/03/27 01:27:57;;;;;;;8.32;1.33;;;1.40;99.90;;;;;;5101122;27;20047;-68
2023/03/27 01:30:35;;;;;;;6.38;1.45;;;1.50;99.90;;;;;;5103111;27;20035;-68
2023/03/27 01:33:04;;;;;;;7.72;1.40;;;1.50;99.90;;;;;;5098564;27;20043;-68
2023/03/27 01:35:55;;;;;;;8.35;1.48;;;1.50;99.90;;;;;;5102405;28;20039;-68
2023/03/27 01:38:46;;;;;;;6.20;1.70;;;1.50;99.90;;;;;;5124022;28;20112;-67
2023/03/27 01:41:25;;;;;;;5.03;1.20;;;1.60;99.90;;;;;;5105900;28;20055;-68
2023/03/27 01:44:01;;;;;;;4.75;1.60;;;1.60;99.90;;;;;;5101774;27;20114;-68
2023/03/27 01:46:52;;;;;;;5.68;1.00;;;1.60;99.90;;;;;;5103028;28;20481;-67
2023/03/27 01:49:27;;;;;;;10.27;1.40;;;1.60;99.90;;;;;;5106636;27;20121;-68
2023/03/27 01:52:02;;;;;;;6.45;1.50;;;1.50;99.90;;;;;;5105165;27;20043;-68
2023/03/27 01:54:53;;;;;;;4.90;1.25;;;1.40;99.90;;;;;;5105471;27;20039;-68
2023/03/27 01:57:24;;;;;;;3.83;0.95;;;1.40;99.90;;;;;;5095699;27;20042;-68
2023/03/27 02:00:16;;;;;;;8.48;1.50;;;1.40;99.90;;;;;;5105994;27;20039;-68
2023/03/27 02:02:54;;;;;;;8.73;1.25;;;1.50;99.90;;;;;;5105432;27;20074;-68
2023/03/27 02:05:26;;;;;;;9.68;1.45;;;1.40;99.90;;;;;;5106212;27;20244;-68
2023/03/27 02:07:58;;;;;;;8.73;1.40;;;1.40;99.90;;;;;;5107229;27;20050;-68
2023/03/27 02:10:34;;;;;;;7.72;1.17;;;1.40;99.90;;;;;;5105561;27;20085;-67
2023/03/27 02:13:10;;;;;;;8.07;1.23;;;1.40;99.90;;;;;;5102904;27;20031;-67
2023/03/27 02:15:39;;;;;;;8.32;1.60;;;1.50;99.90;;;;;;5106660;27;20485;-68
2023/03/27 02:18:09;;;;;;;8.63;1.23;;;1.50;99.90;;;;;;5110242;27;20061;-68
2023/03/27 02:20:37;;;;;;;9.57;1.63;;;1.60;99.90;;;;;;5091635;27;20164;-68
2023/03/27 02:23:03;;;;;;;10.38;1.50;;;1.60;99.90;;;;;;5100117;27;20046;-68
2023/03/27 02:25:32;;;;;;;8.48;1.20;;;1.60;99.90;;;;;;5104292;27;20065;-68
2023/03/27 02:28:22;;;;;;;6.57;1.85;;;1.60;99.90;;;;;;5122969;27;20027;-68
2023/03/27 02:31:01;;;;;;;5.35;1.05;;;1.60;99.90;;;;;;5103296;27;20043;-67
2023/03/27 02:34:04;;;;;;;9.63;1.35;;;1.60;99.90;;;;;;5105340;27;20403;-67
2023/03/27 02:37:02;;;;;;;5.88;1.10;;;1.60;99.90;;;;;;5108293;27;20047;-68
2023/03/27 02:39:39;;;;;;;6.78;1.02;;;1.60;99.90;;;;;;5103457;27;20130;-67
2023/03/27 02:42:22;;;;;;;6.85;1.23;;;1.60;99.90;;;;;;5105392;27;20035;-66
2023/03/27 02:44:59;;;;;;;4.38;0.98;;;1.70;99.90;;;;;;5108700;27;20449;-68
2023/03/27 02:47:37;;;;;;;6.57;1.00;;;1.90;99.90;;;;;;5105368;27;20234;-67
2023/03/27 02:50:08;;;;;;;10.30;1.20;;;2.10;99.90;;;;;;5102768;27;20389;-68
2023/03/27 02:52:42;;;;;;;5.95;1.40;;;2.30;99.90;;;;;;5105188;27;20041;-67
2023/03/27 02:55:17;;;;;;;5.05;1.00;;;2.40;99.90;;;;;;5104503;27;20134;-68
2023/03/27 02:57:45;;;;;;;1.63;0.70;;;2.40;99.90;;;;;;5104789;27;20367;-68
2023/03/27 03:00:17;;;;;;;6.63;1.40;;;2.40;99.90;;;;;;5108156;27;20039;-68
2023/03/27 03:02:45;;;;;;;4.82;1.45;;;2.30;99.90;;;;;;5102877;27;20788;-68
2023/03/27 03:05:19;;;;;;;6.55;1.20;;;2.40;99.90;;;;;;5108108;27;20070;-68
2023/03/27 03:07:45;;;;;;;5.05;0.85;;;2.30;99.90;;;;;;5107163;27;20074;-68
2023/03/27 03:10:12;;;;;;;8.18;1.35;;;2.20;99.90;;;;;;5100443;27;20458;-68
2023/03/27 03:12:37;;;;;;;6.47;0.93;;;2.10;99.90;;;;;;5106839;27;20038;-68
2023/03/27 03:15:04;;;;;;;5.70;1.20;;;2.00;99.90;;;;;;5103748;27;20481;-68
2023/03/27 03:17:30;;;;;;;6.55;1.20;;;1.90;99.90;;;;;;5105721;27;20118;-68
2023/03/27 03:19:55;;;;;;;7.20;1.23;;;1.80;99.90;;;;;;5107404;27;20454;-68
2023/03/27 03:22:21;;;;;;;7.30;1.42;;;1.80;99.90;;;;;;5106537;27;20541;-68
2023/03/27 03:24:47;;;;;;;5.35;1.10;;;1.70;99.90;;;;;;5104962;27;20413;-68
2023/03/27 03:27:13;;;;;;;8.07;0.85;;;1.70;99.90;;;;;;5105606;28;20122;-67
2023/03/27 03:29:38;;;;;;;4.30;0.98;;;1.70;99.90;;;;;;5104810;27;20066;-68
2023/03/27 03:32:05;;;;;;;5.03;1.00;;;1.80;99.90;;;;;;5104185;27;20070;-69
2023/03/27 03:34:32;;;;;;;4.95;0.80;;;1.90;99.90;;;;;;5103464;27;20032;-67
2023/03/27 03:36:59;;;;;;;3.72;0.85;;;2.10;99.90;;;;;;5104667;27;20026;-67
2023/03/27 03:39:24;;;;;;;3.28;0.80;;;2.30;99.90;;;;;;5107230;27;20507;-67
2023/03/27 03:41:50;;;;;;;7.10;1.08;;;2.50;99.90;;;;;;5104212;27;20051;-68
2023/03/27 03:44:16;;;;;;;7.32;1.50;;;2.60;99.90;;;;;;5123253;27;20050;-67
2023/03/27 03:46:41;;;;;;;3.60;0.93;;;2.50;99.90;;;;;;5101539;27;20393;-68
2023/03/27 03:49:07;;;;;;;4.53;0.90;;;2.40;99.90;;;;;;5101891;27;20043;-67
2023/03/27 03:51:34;;;;;;;8.18;1.40;;;2.30;99.90;;;;;;5120510;27;20034;-67
2023/03/27 03:54:04;;;;;;;5.05;0.90;;;2.30;99.90;;;;;;5103053;27;20069;-68
2023/03/27 03:56:30;;;;;;;2.33;1.23;;;2.20;99.90;;;;;;5114653;27;20047;-68
2023/03/27 03:58:56;;;;;;;8.48;2.08;;;2.10;99.90;;;;;;5105524;27;20042;-68
2023/03/27 04:01:22;;;;;;;11.23;1.20;;;2.00;99.90;;;;;;5103267;27;20543;-69
2023/03/27 04:03:48;;;;;;;9.15;1.20;;;1.90;99.90;;;;;;5101668;27;20043;-68
2023/03/27 04:06:20;;;;;;;5.75;1.20;;;1.80;99.90;;;;;;5104085;27;20036;-67
2023/03/27 04:08:46;;;;;;;6.82;1.40;;;1.70;99.90;;;;;;5105839;27;20045;-67
2023/03/27 04:11:11;;;;;;;7.80;1.60;;;1.70;99.90;;;;;;5105978;27;20039;-68
2023/03/27 04:13:37;;;;;;;6.80;1.17;;;1.60;99.90;;;;;;5099404;27;20474;-68
2023/03/27 04:16:03;;;;;;;5.50;1.42;;;1.60;99.90;;;;;;5104512;27;20107;-67
2023/03/27 04:18:31;;;;;;;8.05;1.40;;;1.50;99.90;;;;;;5097006;27;20059;-68
2023/03/27 04:20:57;;;;;;;9.80;1.50;;;1.50;99.90;;;;;;5101778;27;20046;-67
2023/03/27 04:23:29;;;;;;;4.63;1.27;;;1.50;99.90;;;;;;5102965;27;20406;-67
2023/03/27 04:25:58;;;;;;;8.13;1.25;;;1.40;99.90;;;;;;5096957;27;20039;-67
2023/03/27 04:28:29;;;;;;;8.90;1.60;;;1.40;99.90;;;;;;5099693;27;20051;-67
2023/03/27 04:30:56;;;;;;;8.60;1.40;;;1.40;99.90;;;;;;5101157;27;20533;-67
2023/03/27 04:33:22;;;;;;;5.93;1.85;;;1.30;99.90;;;;;;5101561;27;20118;-67
2023/03/27 04:35:51;;;;;;;10.63;1.92;;;1.30;99.90;;;;;;5101048;27;20113;-68
2023/03/27 04:38:18;;;;;;;7.45;1.48;;;1.30;99.90;;;;;;5099121;27;20063;-67
2023/03/27 04:40:45;;;;;;;5.13;1.45;;;1.30;99.90;;;;;;5096321;27;20496;-67
2023/03/27 04:43:15;;;;;;;8.95;1.90;;;1.10;99.90;;;;;;5100261;27;20058;-67
2023/03/27 04:45:43;;;;;;;7.43;1.98;;;1.10;99.90;;;;;;5101070;27;20047;-67
2023/03/27 04:48:09;;;;;;;5.75;1.50;;;1.00;99.90;;;;;;5119648;27;20039;-67
2023/03/27 04:50:35;;;;;;;8.45;2.17;;;1.00;99.90;;;;;;5103146;27;20039;-67
2023/03/27 04:53:00;;;;;;;8.73;1.88;;;0.90;99.90;;;;;;5100904;27;20492;-67
2023/03/27 04:55:26;;;;;;;10.43;1.88;;;1.00;99.90;;;;;;5102871;27;20482;-67
2023/03/27 04:57:53;;;;;;;6.20;1.98;;;1.10;99.90;;;;;;5102641;27;20031;-67
2023/03/27 05:00:21;;;;;;;6.22;1.58;;;1.20;99.90;;;;;;5116863;27;20031;-68
2023/03/27 05:02:51;;;;;;;7.20;1.92;;;1.20;99.90;;;;;;5098872;27;20424;-67
2023/03/27 05:05:17;;;;;;;6.43;1.90;;;1.30;99.90;;;;;;5100000;27;20050;-67
2023/03/27 05:07:47;;;;;;;6.63;1.50;;;1.30;99.90;;;;;;5102960;27;20049;-67
2023/03/27 05:10:14;;;;;;;3.42;1.52;;;1.20;99.90;;;;;;5103318;27;20117;-67
2023/03/27 05:12:47;;;;;;;6.85;1.67;;;1.20;99.90;;;;;;5099461;27;20047;-67
2023/03/27 05:15:14;;;;;;;8.52;1.63;;;1.20;99.90;;;;;;5099146;27;20050;-67
2023/03/27 05:17:44;;;;;;;5.47;1.50;;;1.20;99.90;;;;;;5101173;27;20414;-67
2023/03/27 05:20:18;;;;;;;9.13;1.63;;;1.10;99.90;;;;;;5101763;27;20126;-67
2023/03/27 05:22:44;;;;;;;5.15;1.50;;;1.10;99.90;;;;;;5101579;27;20127;-67
2023/03/27 05:25:10;;;;;;;6.22;1.48;;;1.10;99.90;;;;;;5097284;27;20469;-67
2023/03/27 05:27:36;;;;;;;5.63;1.67;;;1.10;99.90;;;;;;5095433;27;20054;-67
2023/03/27 05:30:03;;;;;;;10.80;1.83;;;1.10;99.90;;;;;;5098093;27;20161;-67
2023/03/27 05:32:29;;;;;;;10.95;2.17;;;1.20;99.90;;;;;;5101749;27;20126;-67
2023/03/27 05:34:54;;;;;;;7.93;1.95;;;1.30;99.90;;;;;;5099250;27;20122;-68
2023/03/27 05:37:21;;;;;;;7.60;1.80;;;1.30;99.90;;;;;;5116487;27;20039;-66
2023/03/27 05:39:46;;;;;;;8.30;2.15;;;1.40;99.90;;;;;;5101424;28;20497;-67
2023/03/27 05:42:13;;;;;;;12.52;2.42;;;1.40;99.90;;;;;;5099855;28;20126;-67
2023/03/27 05:44:39;;;;;;;4.50;1.25;;;1.40;99.90;;;;;;5102705;28;20047;-69
2023/03/27 05:47:05;;;;;;;7.57;1.80;;;1.50;99.90;;;;;;5098357;28;20424;-66
2023/03/27 05:49:31;;;;;;;10.82;2.55;;;1.60;99.90;;;;;;5122369;27;20054;-70
2023/03/27 05:51:57;;;;;;;6.65;1.85;;;1.70;99.90;;;;;;5098094;28;20734;-68
2023/03/27 05:54:23;;;;;;;9.10;1.75;;;1.80;99.90;;;;;;5104535;28;20439;-67
2023/03/27 05:56:51;;;;;;;6.32;1.70;;;1.90;99.90;;;;;;5097556;28;20035;-67
2023/03/27 05:59:18;;;;;;;9.00;2.15;;;2.00;99.90;;;;;;5100802;28;20030;-67
2023/03/27 06:01:43;;;;;;;9.00;1.70;;;2.00;99.90;;;;;;5103144;27;20031;-66
2023/03/27 06:04:09;;;;;;;8.43;2.33;;;2.00;99.90;;;;;;5107558;28;20050;-68
2023/03/27 06:06:35;;;;;;;8.07;1.80;;;2.00;99.90;;;;;;5105270;28;20039;-67
2023/03/27 06:09:00;;;;;;;8.25;1.83;;;2.10;99.90;;;;;;5105047;28;20035;-66
2023/03/27 06:11:26;;;;;;;8.55;1.60;;;2.10;99.90;;;;;;5103166;27;20038;-67
2023/03/27 06:13:52;;;;;;;5.32;1.58;;;2.10;99.90;;;;;;5107622;28;20118;-67
2023/03/27 06:16:19;;;;;;;8.35;1.60;;;2.20;99.90;;;;;;5100553;27;20051;-68
2023/03/27 06:18:46;;;;;;;6.22;1.60;;;2.30;99.90;;;;;;5104553;28;20385;-67
2023/03/27 06:21:12;;;;;;;5.55;1.50;;;2.40;99.90;;;;;;5098562;27;20047;-66
2023/03/27 06:23:37;;;;;;;6.45;1.70;;;2.40;99.90;;;;;;5097950;28;20035;-68
2023/03/27 06:26:03;;;;;;;6.55;1.40;;;2.40;99.90;;;;;;5098527;27;20504;-66
2023/03/27 06:28:29;;;;;;;5.10;1.42;;;2.50;99.90;;;;;;5101706;28;20031;-69
2023/03/27 06:30:56;;;;;;;9.05;1.50;;;2.50;99.90;;;;;;5103549;28;20039;-66
2023/03/27 06:33:24;;;;;;;4.78;1.20;;;2.50;99.90;;;;;;5098076;28;20046;-67
2023/03/27 06:35:50;;;;;;;1.15;0.70;;;2.60;99.90;;;;;;5101947;27;20039;-67
2023/03/27 06:38:17;;;;;;;7.32;1.42;;;2.60;99.90;;;;;;5104677;27;20053;-67
2023/03/27 06:40:44;;;;;;;1.60;0.80;;;2.70;99.90;;;;;;5097443;27;20046;-68
2023/03/27 06:43:10;;;;;;;5.90;1.60;;;2.70;99.90;;;;;;5110668;27;20505;-67
2023/03/27 06:45:45;;;;;;;3.65;0.82;;;2.90;99.90;;;;;;5112837;27;20043;-68
2023/03/27 06:48:11;;;;;;;3.28;1.10;;;2.90;99.90;;;;;;5108382;27;20043;-67
2023/03/27 06:50:37;;;;;;;13.23;2.20;;;3.00;99.90;;;;;;5109863;27;20086;-68
2023/03/27 06:53:04;;;;;;;5.80;1.10;;;3.00;99.90;;;;;;5106821;27;20043;-69
2023/03/27 06:55:31;;;;;;;6.22;1.20;;;3.10;99.90;;;;;;5101686;28;20046;-68
2023/03/27 06:57:59;;;;;;;8.23;1.17;;;3.10;99.90;;;;;;5104839;27;20409;-66
2023/03/27 07:00:28;;;;;;;6.45;1.27;;;3.20;99.90;;;;;;5110607;27;20046;-68
2023/03/27 07:02:55;;;;;;;6.88;1.17;;;3.30;99.90;;;;;;5107928;27;20137;-66
2023/03/27 07:05:22;;;;;;;4.43;1.05;;;3.40;99.90;;;;;;5113871;27;20067;-69
2023/03/27 07:07:48;;;;;;;4.82;1.10;;;3.50;99.90;;;;;;5108097;27;20039;-69
2023/03/27 07:10:14;;;;;;;4.90;0.95;;;3.60;99.90;;;;;;5103578;27;20038;-68
2023/03/27 07:12:45;;;;;;;5.43;1.02;;;3.70;99.90;;;;;;5109451;27;20031;-68
2023/03/27 07:15:10;;;;;;;3.95;0.98;;;3.90;99.90;;;;;;5105249;27;20129;-69
2023/03/27 07:17:36;;;;;;;3.33;0.90;;;3.90;99.90;;;;;;5090271;27;20707;-67
2023/03/27 07:20:04;;;;;;;7.20;1.65;;;4.00;99.90;;;;;;5107999;27;20054;-69
2023/03/27 07:22:30;;;;;;;3.42;0.90;;;4.10;99.90;;;;;;5102967;27;20402;-69
2023/03/27 07:24:56;;;;;;;5.05;1.35;;;4.20;99.90;;;;;;5112341;27;20035;-68
2023/03/27 07:27:23;;;;;;;3.95;1.05;;;4.30;99.90;;;;;;5105130;27;20050;-69
2023/03/27 07:29:49;;;;;;;3.30;0.85;;;4.40;99.90;;;;;;5106472;27;20400;-68
2023/03/27 07:32:14;;;;;;;6.78;1.15;;;4.40;99.90;;;;;;5108793;27;20038;-68
2023/03/27 07:34:40;;;;;;;3.85;0.73;;;4.50;99.90;;;;;;5104339;27;20041;-67
2023/03/27 07:37:05;;;;;;;2.45;0.63;;;4.50;99.90;;;;;;5108540;27;20233;-69
2023/03/27 07:39:31;;;;;;;6.57;1.00;;;4.60;99.90;;;;;;5127201;27;21655;-68
2023/03/27 07:41:56;;;;;;;4.55;1.10;;;4.70;99.90;;;;;;5106591;27;20039;-67
2023/03/27 07:44:22;;;;;;;2.67;0.80;;;4.80;99.90;;;;;;5103692;27;20031;-67
2023/03/27 07:46:50;;;;;;;5.35;1.00;;;4.80;99.90;;;;;;5108701;27;20494;-68
2023/03/27 07:49:16;;;;;;;3.33;0.90;;;4.90;99.90;;;;;;5112480;27;20493;-67
2023/03/27 07:51:43;;;;;;;11.68;1.58;;;4.90;99.90;;;;;;5104934;27;20129;-67
2023/03/27 07:54:12;;;;;;;4.88;1.38;;;5.00;99.90;;;;;;5096697;27;20371;-68
2023/03/27 07:56:38;;;;;;;2.60;0.93;;;5.10;99.90;;;;;;5109641;27;20431;-69
2023/03/27 07:59:03;;;;;;;6.32;1.83;;;5.20;99.90;;;;;;5107328;27;20035;-69
2023/03/27 08:01:29;;;;;;;6.50;0.90;;;5.20;99.90;;;;;;5121133;27;20092;-66
2023/03/27 08:03:55;;;;;;;3.85;0.80;;;5.30;99.90;;;;;;5105788;27;20039;-68
2023/03/27 08:06:21;;;;;;;8.25;1.10;;;5.40;99.90;;;;;;5101522;27;20458;-69
2023/03/27 08:08:47;;;;;;;4.68;1.10;;;5.60;99.90;;;;;;5107431;27;20035;-66
2023/03/27 08:11:13;;;;;;;8.95;1.42;;;5.70;99.90;;;;;;5093766;27;20043;-70
2023/03/27 08:13:39;;;;;;;3.65;0.95;;;5.80;99.90;;;;;;5101621;27;20031;-66
2023/03/27 08:16:12;;;;;;;2.80;0.70;;;5.80;99.90;;;;;;5106475;27;20043;-66
2023/03/27 08:18:37;;;;;;;1.65;0.55;;;5.50;99.90;;;;;;5124284;27;20482;-67
2023/03/27 08:21:05;;;;;;;4.32;1.48;;;5.30;99.90;;;;;;5112124;27;20042;-66
2023/03/27 08:23:32;;;;;;;5.47;0.70;;;5.30;99.90;;;;;;5103138;27;20079;-67
2023/03/27 08:25:59;;;;;;;4.95;0.95;;;5.30;99.90;;;;;;5108726;27;20042;-68
2023/03/27 08:28:29;;;;;;;7.47;1.05;;;5.30;99.90;;;;;;5104624;27;20370;-66
2023/03/27 08:30:54;;;;;;;3.20;0.63;;;5.40;99.90;;;;;;5110974;27;20066;-67
2023/03/27 08:33:21;;;;;;;3.90;1.17;;;5.40;99.90;;;;;;5111666;27;20069;-68
2023/03/27 08:35:50;;;;;;;5.10;0.70;;;5.50;99.90;;;;;;5105330;27;20466;-68
2023/03/27 08:38:16;;;;;;;4.65;0.90;;;5.50;99.90;;;;;;5103269;27;20040;-69
2023/03/27 08:40:52;;;;;;;5.13;1.00;;;5.60;99.90;;;;;;5110618;27;20390;-67
2023/03/27 08:43:26;;;;;;;4.45;0.70;;;5.60;99.90;;;;;;5108975;27;20084;-67
2023/03/27 08:46:18;;;;;;;2.22;0.98;;;5.70;99.90;;;;;;5106395;27;20031;-68
2023/03/27 08:48:51;;;;;;;2.00;0.50;;;5.80;99.90;;;;;;5106947;27;20078;-67
2023/03/27 08:51:23;;;;;;;4.07;0.65;;;6.00;99.90;;;;;;5109389;27;20379;-67
2023/03/27 08:53:56;;;;;;;3.65;0.80;;;6.10;99.90;;;;;;5107911;27;20126;-67
2023/03/27 08:56:23;;;;;;;;;;;6.20;99.90;;;;;;5108260;27;20041;-69
2023/03/27 08:58:48;;;;;;;2.50;0.70;;;6.20;99.90;;;;;;5104267;27;19961;-67
2023/03/27 09:01:24;;;;;;;4.22;0.70;;;6.00;99.90;;;;;;5097890;27;20473;-69
2023/03/27 09:04:19;;;;;;;5.45;0.80;;;5.90;99.90;;;;;;5118855;27;20027;-67
2023/03/27 09:07:27;;;;;;;3.20;0.93;;;5.80;99.90;;;;;;5104866;27;20043;-68
2023/03/27 09:10:16;;;;;;;3.05;0.98;;;5.80;99.90;;;;;;5101939;27;20130;-67
2023/03/27 09:12:42;;;;;;;3.58;0.82;;;5.50;99.90;;;;;;5104978;27;20482;-67
2023/03/27 09:15:13;;;;;;;4.95;1.08;;;5.20;99.90;;;;;;5102209;28;20049;-69
2023/03/27 09:17:45;;;;;;;3.55;1.00;;;4.90;99.90;;;;;;5099238;27;20069;-67
2023/03/27 09:20:24;;;;;;;1.77;0.85;;;4.00;99.90;;;;;;5105177;27;20404;-69
2023/03/27 09:22:55;;;;;;;2.92;0.70;;;3.30;99.90;;;;;;5118540;27;20494;-66
2023/03/27 09:25:39;;;;;;;4.80;0.80;;;2.90;99.90;;;;;;5100816;28;20040;-67
2023/03/27 09:28:19;;;;;;;2.30;0.80;;;2.70;99.90;;;;;;5103337;27;20039;-67
2023/03/27 09:30:46;;;;;;;2.72;0.60;;;2.60;99.90;;;;;;5098806;27;20039;-66
2023/03/27 09:33:11;;;;;;;5.65;1.40;;;2.60;99.90;;;;;;5102159;28;20050;-66
2023/03/27 09:35:38;;;;;;;9.35;1.15;;;2.60;99.90;;;;;;5105362;27;20045;-66
2023/03/27 09:38:16;;;;;;;7.47;1.02;;;2.70;99.90;;;;;;5101459;28;20085;-67
2023/03/27 09:40:57;;;;;;;5.85;0.70;;;2.80;99.90;;;;;;5107702;28;20039;-67
2023/03/27 09:43:55;;;;;;;7.03;1.27;;;3.00;99.90;;;;;;5099793;28;20170;-67
2023/03/27 09:46:23;;;;;;;7.20;1.40;;;3.40;99.90;;;;;;5090880;28;20039;-66
2023/03/27 09:49:20;;;;;;;2.53;0.60;;;3.70;99.90;;;;;;5103312;28;20043;-68
2023/03/27 09:51:47;;;;;;;4.50;1.10;;;3.80;99.90;;;;;;5091875;28;20054;-68
2023/03/27 09:54:16;;;;;;;2.03;0.60;;;3.90;99.90;;;;;;5101966;28;20043;-68
2023/03/27 09:57:05;;;;;;;3.63;0.85;;;4.00;99.90;;;;;;5103069;28;20079;-68
2023/03/27 09:59:40;;;;;;;3.90;0.77;;;4.20;99.90;;;;;;5088414;27;20051;-68
2023/03/27 10:02:20;;;;;;;2.17;1.13;;;4.40;99.90;;;;;;5105659;28;20041;-68
2023/03/27 10:04:59;;;;;;;4.97;0.90;;;4.50;99.90;;;;;;5103248;28;20050;-69
2023/03/27 10:07:25;;;;;;;2.75;1.10;;;4.50;99.90;;;;;;5101418;28;20039;-68
2023/03/27 10:10:07;;;;;;;4.78;1.33;;;4.70;99.90;;;;;;5102650;27;20039;-69
2023/03/27 10:12:34;;;;;;;2.83;0.85;;;4.90;99.90;;;;;;5104525;27;20047;-68
2023/03/27 10:14:59;;;;;;;4.45;0.98;;;5.00;99.90;;;;;;5105440;27;20400;-69
2023/03/27 10:17:31;;;;;;;5.47;1.00;;;5.30;99.90;;;;;;5103367;27;20040;-70
2023/03/27 10:20:12;;;;;;;6.90;1.00;;;5.40;99.90;;;;;;5088153;27;20445;-70
2023/03/27 10:22:41;;;;;;;7.93;1.30;;;5.70;99.90;;;;;;5107229;27;20043;-70
2023/03/27 10:25:20;;;;;;;5.50;1.30;;;6.00;99.90;;;;;;5109265;27;20044;-69
2023/03/27 10:27:46;;;;;;;4.18;1.00;;;6.20;99.90;;;;;;5102261;27;20577;-68
2023/03/27 10:30:26;;;;;;;3.15;1.00;;;6.00;99.90;;;;;;5107723;27;20053;-68
2023/03/27 10:32:52;;;;;;;4.13;1.30;;;5.60;99.90;;;;;;5121640;27;20034;-69
2023/03/27 10:35:24;;;;;;;4.00;1.00;;;5.30;99.90;;;;;;5109459;27;20396;-68
2023/03/27 10:37:50;;;;;;;4.18;0.93;;;5.20;99.90;;;;;;5104398;27;20031;-70
2023/03/27 10:40:25;;;;;;;4.18;1.00;;;5.30;99.90;;;;;;5111632;27;20401;-67
2023/03/27 10:42:54;;;;;;;3.38;1.08;;;5.70;99.90;;;;;;5123092;27;20050;-70
2023/03/27 10:45:21;;;;;;;4.10;0.90;;;5.90;99.90;;;;;;5107133;27;20058;-68
2023/03/27 10:47:52;;;;;;;4.90;1.17;;;6.10;99.90;;;;;;5104314;27;20074;-68
2023/03/27 10:50:51;;;;;;;4.78;1.08;;;6.30;99.90;;;;;;5105547;27;20066;-69
2023/03/27 10:53:36;;;;;;;4.63;0.93;;;6.40;99.90;;;;;;5102984;27;20062;-70
2023/03/27 10:56:12;;;;;;;4.13;0.70;;;6.60;99.90;;;;;;5108229;27;20046;-68
2023/03/27 10:58:43;;;;;;;4.07;0.90;;;6.60;99.90;;;;;;5101295;27;20106;-68
2023/03/27 11:01:25;;;;;;;3.15;0.93;;;6.70;99.90;;;;;;5105771;27;20398;-70
2023/03/27 11:04:04;;;;;;;4.68;0.50;;;6.80;99.90;;;;;;5100651;27;20166;-68
2023/03/27 11:06:34;;;;;;;0.40;0.32;;;6.90;99.90;;;;;;5104945;27;20047;-68
2023/03/27 11:09:18;;;;;;;5.70;0.88;;;7.00;99.90;;;;;;5103206;27;20053;-66
2023/03/27 11:11:50;;;;;;;3.67;1.00;;;7.00;99.90;;;;;;5101974;27;20046;-68
2023/03/27 11:14:44;;;;;;;5.87;1.30;;;7.00;99.90;;;;;;5103974;27;20059;-68
2023/03/27 11:17:13;;;;;;;6.38;1.08;;;6.80;99.90;;;;;;5125018;27;20430;-69
2023/03/27 11:19:48;;;;;;;7.63;0.80;;;6.70;99.90;;;;;;5103652;27;20043;-69
2023/03/27 11:22:23;;;;;;;5.82;1.00;;;6.60;99.90;;;;;;5101888;27;20047;-68
2023/03/27 11:24:57;;;;;;;7.30;0.80;;;6.80;99.90;;;;;;5104659;27;20129;-67
2023/03/27 11:27:46;;;;;;;5.82;0.70;;;7.10;99.90;;;;;;5107792;27;20034;-65
2023/03/27 11:30:30;;;;;;;3.90;0.77;;;7.30;99.90;;;;;;5104071;27;20122;-68
2023/03/27 11:33:23;;;;;;;4.32;0.65;;;7.50;99.90;;;;;;5105613;27;20443;-68
2023/03/27 11:35:54;;;;;;;5.13;1.17;;;7.80;99.90;;;;;;5102499;27;20050;-70
2023/03/27 11:38:32;;;;;;;4.22;1.25;;;7.80;99.90;;;;;;5106633;27;20051;-69
2023/03/27 11:40:58;;;;;;;5.50;1.00;;;7.40;99.90;;;;;;5104783;27;20043;-68
2023/03/27 11:43:24;;;;;;;4.18;1.13;;;6.80;99.90;;;;;;5104303;27;20045;-70
2023/03/27 11:45:52;;;;;;;2.13;0.38;;;6.00;99.90;;;;;;5107662;27;20039;-70
2023/03/27 11:48:36;;;;;;;2.30;0.40;;;5.50;99.90;;;;;;5106624;27;20046;-69
2023/03/27 11:51:14;;;;;;;6.57;0.63;;;5.20;99.90;;;;;;5104525;27;20671;-68
2023/03/27 11:54:06;;;;;;;3.20;0.57;;;5.20;99.90;;;;;;5103981;27;20156;-70
2023/03/27 11:56:54;;;;;;;3.23;0.50;;;5.50;99.90;;;;;;5060326;27;20055;-70
2023/03/27 11:59:40;;;;;;;0.40;0.22;;;5.80;99.90;;;;;;5101091;27;20284;-70
2023/03/27 12:02:53;;;;;;;1.77;0.60;;;6.10;99.90;;;;;;5105679;27;20401;-69
2023/03/27 12:05:58;;;;;;;3.50;0.57;;;6.30;99.90;;;;;;5104167;27;20052;-69
2023/03/27 12:08:39;;;;;;;3.50;0.80;;;6.60;99.90;;;;;;5058115;27;20043;-70
2023/03/27 12:11:09;;;;;;;2.05;0.75;;;7.00;99.90;;;;;;5103126;27;20039;-69
2023/03/27 12:14:02;;;;;;;4.20;0.55;;;7.30;99.90;;;;;;5100841;27;20050;-72
2023/03/27 12:16:35;;;;;;;5.82;0.70;;;7.30;99.90;;;;;;5109306;27;20046;-67
2023/03/27 12:19:08;;;;;;;;;;;7.30;99.90;;;;;;5087669;27;20122;-69
2023/03/27 12:21:33;;;;;;;;;;;7.10;99.90;;;;;;5102663;27;20018;-69
2023/03/27 12:24:11;;;;;;;8.07;1.58;;;7.30;99.90;;;;;;5103518;27;20018;-67
2023/03/27 12:26:40;;;;;;;5.22;1.10;;;7.50;99.90;;;;;;5106364;27;20482;-71
2023/03/27 12:29:11;;;;;;;3.13;0.85;;;6.70;99.90;;;;;;5100740;27;20478;-69
2023/03/27 12:31:48;;;;;;;5.28;0.77;;;6.00;99.90;;;;;;5104245;27;20050;-66
2023/03/27 12:34:53;;;;;;;3.80;0.75;;;5.70;99.90;;;;;;5099288;27;20406;-70
2023/03/27 12:37:23;;;;;;;2.05;0.77;;;5.60;99.90;;;;;;5095074;27;20066;-71
2023/03/27 12:39:55;;;;;;;3.53;0.75;;;5.80;99.90;;;;;;5099995;27;20460;-66
2023/03/27 12:42:50;;;;;;;4.15;1.00;;;6.10;99.90;;;;;;5105836;27;20031;-70
2023/03/27 12:45:16;;;;;;;4.43;0.90;;;6.40;99.90;;;;;;5084110;27;20092;-69
2023/03/27 12:48:10;;;;;;;4.22;1.13;;;6.60;99.90;;;;;;5103167;27;21340;-68
2023/03/27 12:50:51;;;;;;;4.88;0.85;;;6.90;99.90;;;;;;5100041;27;20082;-70
2023/03/27 12:53:26;;;;;;;5.47;1.08;;;7.20;99.90;;;;;;5090203;27;20087;-69
2023/03/27 12:56:15;;;;;;;6.82;1.15;;;7.30;99.90;;;;;;5107315;27;20416;-70
2023/03/27 12:58:42;;;;;;;4.10;0.82;;;7.30;99.90;;;;;;5102123;27;20031;-68
2023/03/27 13:01:10;;;;;;;6.93;1.33;;;7.10;99.90;;;;;;5100253;27;20039;-68
2023/03/27 13:03:38;;;;;;;12.30;1.40;;;7.00;99.90;;;;;;5098708;27;20063;-70
2023/03/27 13:06:32;;;;;;;6.10;1.15;;;7.30;99.90;;;;;;5103800;27;20581;-70
2023/03/27 13:09:13;;;;;;;3.13;0.73;;;7.50;99.90;;;;;;5099495;27;20067;-68
2023/03/27 13:11:44;;;;;;;4.70;0.98;;;7.80;99.90;;;;;;5106921;27;20121;-69
2023/03/27 13:14:44;;;;;;;3.47;0.77;;;7.80;99.90;;;;;;5098517;27;20039;-69
2023/03/27 13:17:43;;;;;;;6.07;1.00;;;7.70;99.90;;;;;;5100546;27;20045;-69
2023/03/27 13:20:22;;;;;;;5.10;1.00;;;7.50;99.90;;;;;;5099080;27;20397;-67
2023/03/27 13:23:11;;;;;;;3.13;0.98;;;7.10;99.90;;;;;;5100994;27;20504;-69
2023/03/27 13:25:58;;;;;;;2.08;0.60;;;6.90;99.90;;;;;;5104622;27;20039;-69